createdAt,value
2022-08-21T00:00:16.262Z,18.68
2022-08-21T00:01:16.258Z,18.70
2022-08-21T00:02:16.320Z,18.52
2022-08-21T00:03:16.227Z,18.61
2022-08-21T00:04:20.991Z,18.61
2022-08-21T00:05:17.194Z,18.55
2022-08-21T00:06:16.212Z,18.54
2022-08-21T00:07:16.183Z,18.52
2022-08-21T00:08:16.165Z,18.47
2022-08-21T00:09:16.157Z,18.49
2022-08-21T00:10:16.143Z,18.52
2022-08-21T00:11:16.139Z,18.55
2022-08-21T00:12:16.139Z,18.46
2022-08-21T00:13:16.906Z,18.46
2022-08-21T00:14:16.095Z,18.46
2022-08-21T00:15:16.100Z,18.37
2022-08-21T00:16:16.081Z,18.29
2022-08-21T00:17:16.074Z,18.33
2022-08-21T00:18:16.052Z,18.22
2022-08-21T00:19:16.048Z,18.22
2022-08-21T00:20:16.035Z,18.15
2022-08-21T00:21:16.023Z,18.21
2022-08-21T00:22:16.028Z,18.10
2022-08-21T00:23:16.002Z,18.19
2022-08-21T00:24:15.992Z,18.04
2022-08-21T00:25:15.975Z,18.00
2022-08-21T00:26:15.963Z,18.03
2022-08-21T00:27:15.968Z,18.10
2022-08-21T00:28:15.943Z,18.00
2022-08-21T00:29:15.934Z,18.04
2022-08-21T00:30:15.926Z,17.89
2022-08-21T00:31:16.913Z,17.87
2022-08-21T00:32:15.920Z,17.91
2022-08-21T00:33:15.890Z,17.95
2022-08-21T00:34:15.878Z,17.85
2022-08-21T00:35:15.869Z,17.82
2022-08-21T00:36:15.856Z,17.85
2022-08-21T00:37:15.870Z,17.76
2022-08-21T00:38:15.835Z,17.79
2022-08-21T00:39:15.817Z,17.78
2022-08-21T00:40:15.896Z,17.81
2022-08-21T00:41:37.816Z,17.74
2022-08-21T00:42:16.792Z,17.74
2022-08-21T00:43:15.776Z,17.70
2022-08-21T00:44:15.763Z,17.69
2022-08-21T00:45:15.752Z,17.74
2022-08-21T00:46:15.739Z,17.64
2022-08-21T00:47:15.740Z,17.69
2022-08-21T00:48:15.721Z,17.59
2022-08-21T00:49:15.711Z,17.57
2022-08-21T00:50:22.001Z,17.59
2022-08-21T00:51:16.679Z,17.63
2022-08-21T00:52:15.687Z,17.51
2022-08-21T00:53:15.660Z,17.57
2022-08-21T00:54:18.761Z,17.44
2022-08-21T00:55:15.642Z,17.38
2022-08-21T00:56:15.629Z,17.50
2022-08-21T00:57:15.677Z,17.43
2022-08-21T00:58:17.372Z,17.46
2022-08-21T00:59:15.598Z,17.46
2022-08-21T01:00:15.581Z,17.32
2022-08-21T01:01:15.644Z,17.26
2022-08-21T01:02:15.571Z,17.22
2022-08-21T01:03:15.546Z,17.33
2022-08-21T01:04:15.534Z,17.29
2022-08-21T01:05:15.524Z,17.20
2022-08-21T01:06:15.518Z,17.15
2022-08-21T01:07:15.515Z,17.26
2022-08-21T01:08:15.489Z,17.18
2022-08-21T01:09:15.484Z,17.25
2022-08-21T01:10:23.690Z,17.23
2022-08-21T01:11:16.454Z,17.23
2022-08-21T01:12:15.466Z,17.11
2022-08-21T01:13:15.437Z,17.13
2022-08-21T01:14:15.434Z,17.22
2022-08-21T01:15:15.410Z,17.20
2022-08-21T01:16:15.406Z,17.11
2022-08-21T01:17:15.428Z,17.10
2022-08-21T01:18:15.379Z,17.17
2022-08-21T01:19:15.368Z,17.20
2022-08-21T01:20:15.361Z,17.10
2022-08-21T01:21:15.357Z,17.15
2022-08-21T01:22:15.342Z,17.15
2022-08-21T01:23:15.324Z,17.06
2022-08-21T01:24:15.316Z,17.03
2022-08-21T01:25:15.304Z,17.03
2022-08-21T01:26:15.289Z,16.99
2022-08-21T01:27:15.293Z,16.99
2022-08-21T01:28:15.270Z,17.03
2022-08-21T01:29:15.258Z,16.93
2022-08-21T01:30:15.248Z,16.96
2022-08-21T01:31:15.243Z,16.90
2022-08-21T01:32:15.242Z,16.93
2022-08-21T01:33:15.212Z,16.96
2022-08-21T01:34:15.203Z,16.96
2022-08-21T01:35:15.188Z,16.98
2022-08-21T01:36:15.171Z,17.00
2022-08-21T01:37:15.180Z,16.99
2022-08-21T01:38:15.161Z,16.96
2022-08-21T01:39:15.142Z,16.92
2022-08-21T01:40:15.211Z,16.92
2022-08-21T01:41:15.121Z,16.96
2022-08-21T01:42:15.133Z,17.04
2022-08-21T01:43:15.090Z,16.95
2022-08-21T01:44:15.085Z,16.98
2022-08-21T01:45:15.075Z,16.93
2022-08-21T01:46:15.055Z,16.95
2022-08-21T01:47:15.067Z,16.90
2022-08-21T01:48:15.040Z,16.98
2022-08-21T01:49:15.024Z,16.85
2022-08-21T01:50:15.017Z,16.89
2022-08-21T01:51:15.006Z,16.78
2022-08-21T01:52:15.003Z,16.86
2022-08-21T01:53:14.982Z,16.78
2022-08-21T01:54:14.995Z,16.81
2022-08-21T01:55:14.963Z,16.90
2022-08-21T01:56:14.946Z,16.83
2022-08-21T01:57:14.951Z,16.80
2022-08-21T01:58:14.923Z,16.83
2022-08-21T01:59:14.913Z,16.88
2022-08-21T02:00:14.900Z,16.80
2022-08-21T02:01:14.963Z,16.75
2022-08-21T02:02:14.896Z,16.85
2022-08-21T02:03:14.862Z,16.85
2022-08-21T02:04:15.855Z,16.75
2022-08-21T02:05:14.847Z,16.73
2022-08-21T02:06:14.830Z,16.63
2022-08-21T02:07:14.827Z,16.63
2022-08-21T02:08:14.800Z,16.73
2022-08-21T02:09:14.797Z,16.67
2022-08-21T02:10:14.782Z,16.62
2022-08-21T02:11:14.768Z,16.63
2022-08-21T02:12:14.775Z,16.55
2022-08-21T02:13:14.750Z,16.59
2022-08-21T02:14:14.742Z,16.58
2022-08-21T02:15:14.722Z,16.44
2022-08-21T02:16:17.296Z,16.42
2022-08-21T02:17:14.721Z,16.52
2022-08-21T02:18:14.687Z,16.48
2022-08-21T02:19:14.685Z,16.40
2022-08-21T02:20:14.672Z,16.44
2022-08-21T02:21:14.662Z,16.33
2022-08-21T02:22:14.647Z,16.30
2022-08-21T02:23:14.650Z,16.38
2022-08-21T02:24:14.633Z,16.31
2022-08-21T02:25:14.608Z,16.27
2022-08-21T02:26:14.598Z,16.30
2022-08-21T02:27:14.600Z,16.25
2022-08-21T02:28:14.588Z,16.22
2022-08-21T02:29:14.573Z,16.18
2022-08-21T02:30:14.552Z,16.25
2022-08-21T02:31:14.555Z,16.15
2022-08-21T02:32:15.842Z,16.18
2022-08-21T02:33:14.535Z,16.16
2022-08-21T02:34:14.508Z,16.18
2022-08-21T02:35:14.498Z,16.06
2022-08-21T02:36:14.493Z,16.12
2022-08-21T02:37:14.482Z,16.25
2022-08-21T02:38:14.491Z,16.11
2022-08-21T02:39:14.453Z,16.12
2022-08-21T02:40:14.469Z,16.15
2022-08-21T02:41:14.439Z,16.11
2022-08-21T02:42:14.433Z,16.07
2022-08-21T02:43:14.436Z,16.15
2022-08-21T02:44:14.400Z,16.14
2022-08-21T02:45:14.396Z,16.00
2022-08-21T02:46:14.377Z,15.99
2022-08-21T02:47:14.381Z,15.96
2022-08-21T02:48:14.372Z,15.97
2022-08-21T02:49:14.343Z,15.99
2022-08-21T02:50:14.331Z,16.04
2022-08-21T02:51:14.332Z,16.03
2022-08-21T02:52:14.316Z,15.99
2022-08-21T02:53:14.315Z,15.96
2022-08-21T02:54:14.294Z,15.94
2022-08-21T02:55:14.284Z,15.94
2022-08-21T02:56:14.270Z,15.93
2022-08-21T02:57:14.254Z,15.86
2022-08-21T02:58:14.257Z,15.86
2022-08-21T02:59:14.237Z,15.86
2022-08-21T03:00:14.218Z,15.82
2022-08-21T03:01:14.283Z,15.93
2022-08-21T03:02:14.198Z,15.88
2022-08-21T03:03:14.236Z,15.76
2022-08-21T03:04:14.184Z,15.88
2022-08-21T03:05:14.172Z,15.82
2022-08-21T03:06:14.162Z,15.81
2022-08-21T03:07:14.154Z,15.81
2022-08-21T03:08:14.139Z,15.74
2022-08-21T03:09:14.134Z,15.70
2022-08-21T03:10:14.109Z,15.75
2022-08-21T03:11:14.098Z,15.70
2022-08-21T03:12:14.094Z,15.68
2022-08-21T03:13:14.074Z,15.76
2022-08-21T03:14:14.081Z,15.64
2022-08-21T03:15:14.062Z,15.81
2022-08-21T03:16:14.048Z,15.72
2022-08-21T03:17:14.035Z,15.68
2022-08-21T03:18:14.020Z,15.67
2022-08-21T03:19:14.021Z,15.61
2022-08-21T03:20:13.997Z,15.64
2022-08-21T03:21:13.986Z,15.59
2022-08-21T03:22:13.975Z,15.59
2022-08-21T03:23:16.775Z,15.59
2022-08-21T03:24:13.975Z,15.61
2022-08-21T03:25:13.948Z,15.64
2022-08-21T03:26:13.928Z,15.59
2022-08-21T03:27:13.917Z,15.68
2022-08-21T03:28:14.025Z,15.60
2022-08-21T03:29:13.919Z,15.54
2022-08-21T03:30:13.885Z,15.56
2022-08-21T03:31:13.882Z,15.46
2022-08-21T03:32:13.866Z,15.59
2022-08-21T03:33:15.127Z,15.52
2022-08-21T03:34:13.854Z,15.51
2022-08-21T03:35:13.830Z,15.54
2022-08-21T03:36:13.825Z,15.52
2022-08-21T03:37:13.818Z,15.59
2022-08-21T03:38:13.827Z,15.54
2022-08-21T03:39:13.806Z,15.54
2022-08-21T03:40:13.852Z,15.57
2022-08-21T03:41:13.759Z,15.46
2022-08-21T03:42:13.750Z,15.49
2022-08-21T03:43:13.736Z,15.56
2022-08-21T03:44:13.750Z,15.43
2022-08-21T03:45:13.714Z,15.48
2022-08-21T03:46:13.711Z,15.43
2022-08-21T03:47:13.700Z,15.41
2022-08-21T03:48:13.719Z,15.43
2022-08-21T03:49:13.716Z,15.46
2022-08-21T03:50:13.698Z,15.36
2022-08-21T03:51:13.651Z,15.45
2022-08-21T03:52:13.646Z,15.35
2022-08-21T03:53:16.926Z,15.51
2022-08-21T03:54:13.614Z,15.38
2022-08-21T03:55:13.649Z,15.39
2022-08-21T03:56:13.598Z,15.33
2022-08-21T03:57:13.587Z,15.28
2022-08-21T03:58:16.528Z,15.46
2022-08-21T03:59:13.565Z,15.42
2022-08-21T04:00:13.565Z,15.31
2022-08-21T04:01:13.555Z,15.30
2022-08-21T04:02:13.531Z,15.31
2022-08-21T04:03:13.514Z,15.39
2022-08-21T04:04:13.508Z,15.36
2022-08-21T04:05:13.505Z,15.42
2022-08-21T04:06:13.478Z,15.38
2022-08-21T04:07:13.495Z,15.30
2022-08-21T04:08:13.462Z,15.45
2022-08-21T04:09:13.451Z,15.41
2022-08-21T04:10:13.449Z,15.39
2022-08-21T04:11:13.428Z,15.36
2022-08-21T04:12:13.422Z,15.31
2022-08-21T04:13:13.398Z,15.33
2022-08-21T04:14:13.388Z,15.31
2022-08-21T04:15:13.397Z,15.26
2022-08-21T04:16:13.364Z,15.27
2022-08-21T04:17:13.351Z,15.27
2022-08-21T04:18:13.350Z,15.23
2022-08-21T04:19:13.330Z,15.31
2022-08-21T04:20:13.344Z,15.23
2022-08-21T04:21:13.453Z,15.15
2022-08-21T04:22:13.303Z,15.12
2022-08-21T04:23:13.282Z,15.19
2022-08-21T04:24:14.273Z,15.20
2022-08-21T04:25:13.298Z,15.15
2022-08-21T04:26:13.250Z,15.21
2022-08-21T04:27:13.237Z,15.20
2022-08-21T04:28:13.237Z,15.06
2022-08-21T04:29:13.221Z,15.08
2022-08-21T04:30:13.218Z,15.03
2022-08-21T04:31:13.195Z,15.06
2022-08-21T04:32:13.181Z,15.05
2022-08-21T04:33:13.176Z,15.12
2022-08-21T04:34:13.167Z,15.21
2022-08-21T04:35:13.170Z,15.05
2022-08-21T04:36:13.143Z,15.03
2022-08-21T04:37:13.125Z,15.17
2022-08-21T04:38:13.116Z,15.02
2022-08-21T04:39:13.100Z,15.01
2022-08-21T04:40:13.263Z,15.12
2022-08-21T04:41:13.085Z,15.08
2022-08-21T04:42:13.067Z,15.01
2022-08-21T04:43:13.066Z,15.02
2022-08-21T04:44:13.145Z,14.98
2022-08-21T04:45:13.053Z,15.09
2022-08-21T04:46:13.637Z,14.99
2022-08-21T04:47:13.017Z,15.11
2022-08-21T04:48:14.257Z,15.05
2022-08-21T04:49:12.989Z,15.01
2022-08-21T04:50:12.989Z,14.95
2022-08-21T04:51:12.966Z,15.02
2022-08-21T04:52:12.954Z,15.03
2022-08-21T04:53:12.940Z,14.98
2022-08-21T04:54:12.930Z,15.03
2022-08-21T04:55:12.934Z,15.01
2022-08-21T04:56:12.907Z,14.99
2022-08-21T04:57:12.903Z,15.09
2022-08-21T04:58:12.885Z,15.17
2022-08-21T04:59:12.881Z,15.13
2022-08-21T05:00:14.334Z,15.15
2022-08-21T05:01:12.912Z,15.08
2022-08-21T05:02:12.847Z,15.21
2022-08-21T05:03:12.828Z,15.11
2022-08-21T05:04:12.819Z,15.20
2022-08-21T05:05:12.815Z,15.19
2022-08-21T05:06:12.801Z,15.28
2022-08-21T05:07:12.788Z,15.23
2022-08-21T05:08:12.773Z,15.21
2022-08-21T05:09:12.767Z,15.38
2022-08-21T05:10:13.863Z,15.30
2022-08-21T05:11:12.746Z,15.33
2022-08-21T05:12:12.733Z,15.31
2022-08-21T05:13:12.722Z,15.26
2022-08-21T05:14:12.712Z,15.33
2022-08-21T05:15:13.078Z,15.36
2022-08-21T05:16:12.693Z,15.36
2022-08-21T05:17:12.679Z,15.43
2022-08-21T05:18:12.657Z,15.51
2022-08-21T05:19:12.655Z,15.59
2022-08-21T05:20:12.685Z,15.45
2022-08-21T05:21:12.633Z,15.51
2022-08-21T05:22:12.620Z,15.60
2022-08-21T05:23:12.609Z,15.61
2022-08-21T05:24:12.591Z,15.63
2022-08-21T05:25:12.592Z,15.63
2022-08-21T05:26:18.041Z,15.64
2022-08-21T05:27:13.560Z,15.78
2022-08-21T05:28:12.546Z,15.89
2022-08-21T05:29:13.067Z,15.82
2022-08-21T05:30:12.535Z,15.93
2022-08-21T05:31:12.509Z,15.99
2022-08-21T05:32:12.499Z,16.06
2022-08-21T05:33:12.493Z,16.09
2022-08-21T05:34:12.475Z,16.06
2022-08-21T05:35:12.484Z,16.14
2022-08-21T05:36:12.459Z,16.23
2022-08-21T05:37:12.440Z,16.22
2022-08-21T05:38:16.739Z,16.30
2022-08-21T05:39:13.418Z,16.31
2022-08-21T05:40:21.430Z,16.49
2022-08-21T05:41:13.469Z,16.50
2022-08-21T05:42:12.385Z,16.56
2022-08-21T05:43:12.379Z,16.58
2022-08-21T05:44:12.365Z,16.59
2022-08-21T05:45:12.369Z,16.65
2022-08-21T05:46:12.356Z,16.63
2022-08-21T05:47:12.327Z,16.73
2022-08-21T05:48:12.343Z,16.74
2022-08-21T05:49:12.310Z,16.74
2022-08-21T05:50:12.306Z,16.86
2022-08-21T05:51:12.280Z,16.89
2022-08-21T05:52:12.277Z,16.95
2022-08-21T05:53:12.267Z,16.96
2022-08-21T05:54:12.258Z,16.99
2022-08-21T05:55:12.257Z,17.07
2022-08-21T05:56:12.226Z,17.11
2022-08-21T05:57:12.211Z,17.18
2022-08-21T05:58:12.209Z,17.14
2022-08-21T05:59:12.191Z,17.25
2022-08-21T06:00:12.191Z,17.35
2022-08-21T06:01:12.230Z,17.25
2022-08-21T06:02:12.252Z,17.35
2022-08-21T06:03:12.148Z,17.36
2022-08-21T06:04:12.132Z,17.51
2022-08-21T06:05:12.133Z,17.54
2022-08-21T06:06:12.116Z,17.51
2022-08-21T06:07:12.103Z,17.66
2022-08-21T06:08:12.086Z,17.62
2022-08-21T06:09:12.081Z,17.70
2022-08-21T06:10:12.084Z,17.73
2022-08-21T06:11:12.051Z,17.69
2022-08-21T06:12:12.051Z,17.53
2022-08-21T06:13:12.034Z,17.50
2022-08-21T06:14:12.026Z,17.43
2022-08-21T06:15:12.019Z,17.30
2022-08-21T06:16:12.005Z,17.32
2022-08-21T06:17:11.991Z,17.33
2022-08-21T06:18:11.982Z,17.29
2022-08-21T06:19:11.967Z,17.33
2022-08-21T06:20:11.973Z,17.38
2022-08-21T06:21:11.950Z,17.40
2022-08-21T06:22:11.954Z,17.35
2022-08-21T06:23:11.927Z,17.36
2022-08-21T06:24:11.916Z,17.41
2022-08-21T06:25:11.908Z,17.40
2022-08-21T06:26:11.888Z,17.43
2022-08-21T06:27:11.875Z,17.43
2022-08-21T06:28:11.872Z,17.43
2022-08-21T06:29:11.855Z,17.32
2022-08-21T06:30:11.863Z,17.41
2022-08-21T06:31:11.838Z,17.41
2022-08-21T06:32:11.826Z,17.36
2022-08-21T06:33:11.812Z,17.47
2022-08-21T06:34:11.803Z,17.41
2022-08-21T06:35:11.804Z,17.35
2022-08-21T06:36:11.779Z,17.48
2022-08-21T06:37:11.759Z,17.54
2022-08-21T06:38:11.755Z,17.62
2022-08-21T06:39:16.464Z,17.62
2022-08-21T06:40:13.029Z,17.63
2022-08-21T06:41:11.714Z,17.67
2022-08-21T06:42:11.703Z,17.66
2022-08-21T06:43:11.691Z,17.64
2022-08-21T06:44:11.687Z,17.66
2022-08-21T06:45:11.691Z,17.70
2022-08-21T06:46:11.666Z,17.71
2022-08-21T06:47:11.646Z,17.74
2022-08-21T06:48:14.615Z,17.89
2022-08-21T06:49:17.573Z,17.89
2022-08-21T06:50:12.629Z,18.07
2022-08-21T06:51:11.601Z,18.09
2022-08-21T06:52:11.596Z,18.15
2022-08-21T06:53:11.585Z,18.13
2022-08-21T06:54:11.577Z,18.07
2022-08-21T06:55:11.570Z,18.17
2022-08-21T06:56:11.550Z,18.15
2022-08-21T06:57:11.545Z,18.21
2022-08-21T06:58:11.530Z,18.17
2022-08-21T06:59:11.524Z,18.33
2022-08-21T07:00:11.515Z,18.24
2022-08-21T07:01:11.553Z,18.42
2022-08-21T07:02:11.477Z,18.47
2022-08-21T07:03:11.474Z,18.44
2022-08-21T07:04:11.472Z,18.43
2022-08-21T07:05:17.809Z,18.40
2022-08-21T07:06:12.436Z,18.43
2022-08-21T07:07:11.424Z,18.44
2022-08-21T07:08:11.417Z,18.50
2022-08-21T07:09:11.403Z,18.55
2022-08-21T07:10:11.806Z,18.62
2022-08-21T07:11:12.382Z,18.54
2022-08-21T07:12:11.362Z,18.55
2022-08-21T07:13:11.353Z,18.59
2022-08-21T07:14:11.347Z,18.73
2022-08-21T07:15:12.345Z,18.86
2022-08-21T07:16:11.319Z,18.86
2022-08-21T07:17:11.306Z,18.83
2022-08-21T07:18:11.300Z,18.94
2022-08-21T07:19:11.288Z,18.92
2022-08-21T07:20:11.292Z,18.90
2022-08-21T07:21:11.264Z,18.82
2022-08-21T07:22:11.255Z,18.92
2022-08-21T07:23:11.240Z,18.91
2022-08-21T07:24:11.231Z,18.90
2022-08-21T07:25:11.233Z,19.05
2022-08-21T07:26:11.204Z,19.06
2022-08-21T07:27:11.224Z,19.06
2022-08-21T07:28:11.183Z,19.25
2022-08-21T07:29:11.177Z,19.20
2022-08-21T07:30:11.182Z,19.23
2022-08-21T07:31:11.151Z,19.36
2022-08-21T07:32:11.145Z,19.35
2022-08-21T07:33:11.128Z,19.53
2022-08-21T07:34:11.116Z,19.47
2022-08-21T07:35:11.119Z,19.61
2022-08-21T07:36:11.094Z,19.70
2022-08-21T07:37:11.081Z,19.66
2022-08-21T07:38:11.079Z,19.63
2022-08-21T07:39:11.069Z,19.68
2022-08-21T07:40:11.134Z,19.65
2022-08-21T07:41:11.041Z,19.68
2022-08-21T07:42:11.034Z,19.76
2022-08-21T07:43:11.017Z,19.84
2022-08-21T07:44:12.552Z,19.80
2022-08-21T07:45:11.009Z,19.75
2022-08-21T07:46:10.986Z,19.76
2022-08-21T07:47:10.968Z,19.79
2022-08-21T07:48:10.962Z,19.83
2022-08-21T07:49:10.953Z,19.86
2022-08-21T07:50:10.960Z,19.90
2022-08-21T07:51:10.924Z,19.84
2022-08-21T07:52:10.912Z,19.88
2022-08-21T07:53:10.907Z,19.97
2022-08-21T07:54:10.896Z,20.03
2022-08-21T07:55:11.897Z,20.03
2022-08-21T07:56:10.875Z,20.08
2022-08-21T07:57:10.879Z,20.06
2022-08-21T07:58:10.854Z,20.08
2022-08-21T07:59:10.834Z,20.23
2022-08-21T08:00:10.843Z,20.18
2022-08-21T08:01:10.880Z,20.27
2022-08-21T08:02:10.801Z,20.30
2022-08-21T08:03:10.811Z,20.35
2022-08-21T08:04:10.777Z,20.49
2022-08-21T08:05:10.794Z,20.47
2022-08-21T08:06:10.765Z,20.56
2022-08-21T08:07:10.746Z,20.66
2022-08-21T08:08:10.740Z,20.65
2022-08-21T08:09:10.723Z,20.61
2022-08-21T08:10:10.732Z,20.71
2022-08-21T08:11:10.700Z,20.66
2022-08-21T08:12:10.696Z,20.71
2022-08-21T08:13:10.768Z,20.61
2022-08-21T08:14:10.666Z,20.76
2022-08-21T08:15:10.670Z,20.74
2022-08-21T08:16:10.652Z,20.77
2022-08-21T08:17:10.640Z,20.77
2022-08-21T08:18:10.620Z,20.77
2022-08-21T08:19:10.619Z,20.84
2022-08-21T08:20:10.611Z,20.71
2022-08-21T08:21:10.595Z,20.87
2022-08-21T08:22:10.577Z,21.01
2022-08-21T08:23:10.573Z,20.99
2022-08-21T08:24:18.489Z,21.02
2022-08-21T08:25:11.564Z,21.09
2022-08-21T08:26:10.531Z,21.08
2022-08-21T08:27:10.545Z,21.14
2022-08-21T08:28:16.651Z,21.26
2022-08-21T08:29:11.503Z,21.35
2022-08-21T08:30:10.509Z,21.45
2022-08-21T08:31:10.490Z,21.48
2022-08-21T08:32:10.467Z,21.61
2022-08-21T08:33:10.454Z,21.76
2022-08-21T08:34:10.442Z,21.75
2022-08-21T08:35:11.445Z,21.83
2022-08-21T08:36:10.418Z,21.81
2022-08-21T08:37:10.412Z,21.98
2022-08-21T08:38:10.397Z,21.82
2022-08-21T08:39:10.932Z,21.92
2022-08-21T08:40:10.435Z,21.94
2022-08-21T08:41:10.366Z,22.02
2022-08-21T08:42:34.067Z,22.16
2022-08-21T08:43:14.487Z,22.17
2022-08-21T08:44:10.338Z,22.37
2022-08-21T08:45:10.334Z,22.43
2022-08-21T08:46:10.313Z,22.52
2022-08-21T08:47:10.304Z,22.57
2022-08-21T08:48:14.427Z,22.67
2022-08-21T08:49:10.284Z,22.72
2022-08-21T08:50:10.304Z,22.84
2022-08-21T08:51:10.257Z,22.92
2022-08-21T08:52:10.239Z,22.89
2022-08-21T08:53:10.237Z,22.89
2022-08-21T08:54:10.216Z,23.01
2022-08-21T08:55:10.220Z,22.99
2022-08-21T08:56:10.196Z,23.14
2022-08-21T08:57:10.191Z,23.35
2022-08-21T08:58:10.186Z,23.61
2022-08-21T08:59:10.171Z,23.80
2022-08-21T09:00:10.184Z,23.77
2022-08-21T09:01:10.161Z,23.95
2022-08-21T09:02:10.133Z,24.13
2022-08-21T09:03:10.123Z,24.26
2022-08-21T09:04:10.104Z,24.57
2022-08-21T09:05:10.113Z,24.75
2022-08-21T09:06:10.091Z,25.02
2022-08-21T09:07:10.083Z,25.13
2022-08-21T09:08:10.061Z,25.35
2022-08-21T09:09:10.059Z,25.42
2022-08-21T09:10:10.061Z,25.50
2022-08-21T09:11:10.035Z,25.67
2022-08-21T09:12:10.022Z,25.86
2022-08-21T09:13:10.018Z,26.05
2022-08-21T09:14:09.994Z,26.18
2022-08-21T09:15:10.008Z,26.40
2022-08-21T09:16:09.974Z,26.54
2022-08-21T09:17:09.962Z,26.86
2022-08-21T09:18:09.950Z,26.87
2022-08-21T09:19:09.947Z,27.10
2022-08-21T09:20:09.959Z,27.19
2022-08-21T09:21:09.924Z,27.39
2022-08-21T09:22:09.906Z,27.54
2022-08-21T09:23:09.901Z,27.79
2022-08-21T09:24:09.889Z,27.85
2022-08-21T09:25:09.893Z,27.92
2022-08-21T09:26:09.859Z,27.96
2022-08-21T09:27:09.849Z,28.11
2022-08-21T09:28:09.844Z,28.31
2022-08-21T09:29:09.830Z,28.43
2022-08-21T09:30:09.831Z,28.53
2022-08-21T09:31:09.813Z,28.73
2022-08-21T09:32:09.795Z,28.95
2022-08-21T09:33:09.790Z,29.28
2022-08-21T09:34:09.770Z,29.53
2022-08-21T09:35:09.782Z,29.70
2022-08-21T09:36:09.747Z,29.89
2022-08-21T09:37:09.737Z,30.11
2022-08-21T09:38:09.734Z,30.27
2022-08-21T09:39:09.718Z,30.31
2022-08-21T09:40:09.787Z,30.26
2022-08-21T09:41:09.702Z,30.36
2022-08-21T09:42:09.683Z,30.59
2022-08-21T09:43:09.672Z,30.80
2022-08-21T09:44:09.669Z,30.86
2022-08-21T09:45:09.668Z,30.68
2022-08-21T09:46:09.639Z,30.84
2022-08-21T09:47:09.627Z,30.90
2022-08-21T09:48:09.616Z,30.91
2022-08-21T09:49:13.366Z,31.24
2022-08-21T09:50:10.619Z,31.70
2022-08-21T09:51:09.590Z,32.03
2022-08-21T09:52:09.586Z,32.27
2022-08-21T09:53:09.569Z,32.67
2022-08-21T09:54:09.567Z,32.93
2022-08-21T09:55:09.554Z,32.88
2022-08-21T09:56:09.529Z,32.84
2022-08-21T09:57:09.531Z,32.89
2022-08-21T09:58:09.506Z,32.84
2022-08-21T09:59:09.503Z,32.22
2022-08-21T10:00:09.505Z,31.68
2022-08-21T10:01:09.562Z,31.80
2022-08-21T10:02:09.463Z,31.64
2022-08-21T10:03:09.457Z,31.35
2022-08-21T10:04:09.449Z,31.45
2022-08-21T10:05:09.451Z,31.31
2022-08-21T10:06:09.562Z,31.35
2022-08-21T10:07:09.418Z,31.68
2022-08-21T10:08:09.398Z,32.14
2022-08-21T10:09:13.578Z,32.52
2022-08-21T10:10:10.417Z,32.96
2022-08-21T10:11:09.375Z,33.37
2022-08-21T10:12:11.154Z,33.79
2022-08-21T10:13:09.352Z,33.94
2022-08-21T10:14:09.336Z,34.04
2022-08-21T10:15:09.338Z,33.97
2022-08-21T10:16:09.319Z,33.27
2022-08-21T10:17:09.313Z,32.40
2022-08-21T10:18:09.295Z,31.54
2022-08-21T10:19:09.286Z,30.83
2022-08-21T10:20:09.283Z,30.75
2022-08-21T10:21:11.965Z,30.99
2022-08-21T10:22:09.269Z,31.46
2022-08-21T10:23:09.246Z,31.82
2022-08-21T10:24:09.234Z,31.99
2022-08-21T10:25:09.232Z,32.05
2022-08-21T10:26:14.248Z,31.88
2022-08-21T10:27:10.202Z,32.10
2022-08-21T10:28:13.571Z,32.20
2022-08-21T10:29:09.177Z,32.39
2022-08-21T10:30:09.184Z,32.61
2022-08-21T10:31:09.163Z,32.69
2022-08-21T10:32:17.323Z,32.71
2022-08-21T10:33:10.133Z,32.79
2022-08-21T10:34:09.128Z,32.86
2022-08-21T10:35:09.132Z,32.81
2022-08-21T10:36:09.107Z,32.62
2022-08-21T10:37:10.801Z,32.27
2022-08-21T10:38:09.100Z,31.93
2022-08-21T10:39:26.821Z,31.39
2022-08-21T10:40:10.177Z,30.78
2022-08-21T10:41:09.050Z,30.15
2022-08-21T10:42:09.037Z,29.99
2022-08-21T10:43:09.038Z,29.89
2022-08-21T10:44:09.022Z,29.97
2022-08-21T10:45:09.027Z,30.11
2022-08-21T10:46:09.015Z,30.16
2022-08-21T10:47:08.993Z,30.14
2022-08-21T10:48:08.983Z,30.15
2022-08-21T10:49:08.964Z,30.23
2022-08-21T10:50:08.975Z,29.99
2022-08-21T10:51:08.963Z,29.86
2022-08-21T10:52:08.940Z,29.89
2022-08-21T10:53:08.929Z,29.79
2022-08-21T10:54:08.911Z,29.93
2022-08-21T10:55:08.923Z,29.90
2022-08-21T10:56:08.900Z,30.03
2022-08-21T10:57:08.889Z,30.11
2022-08-21T10:58:08.882Z,29.96
2022-08-21T10:59:08.872Z,29.93
2022-08-21T11:00:08.863Z,29.87
2022-08-21T11:01:08.935Z,30.03
2022-08-21T11:02:08.834Z,30.12
2022-08-21T11:03:08.819Z,30.15
2022-08-21T11:04:08.816Z,30.26
2022-08-21T11:05:08.840Z,30.34
2022-08-21T11:06:08.795Z,30.30
2022-08-21T11:07:08.784Z,30.36
2022-08-21T11:08:09.778Z,30.24
2022-08-21T11:09:08.759Z,30.21
2022-08-21T11:10:08.746Z,30.14
2022-08-21T11:11:08.905Z,30.09
2022-08-21T11:12:11.042Z,29.93
2022-08-21T11:13:08.726Z,29.82
2022-08-21T11:14:08.705Z,29.65
2022-08-21T11:15:08.701Z,29.53
2022-08-21T11:16:09.702Z,29.33
2022-08-21T11:17:08.670Z,29.22
2022-08-21T11:18:08.666Z,29.22
2022-08-21T11:19:08.653Z,29.23
2022-08-21T11:20:08.640Z,29.33
2022-08-21T11:21:08.643Z,29.44
2022-08-21T11:22:08.618Z,29.62
2022-08-21T11:23:08.991Z,29.81
2022-08-21T11:24:08.606Z,29.84
2022-08-21T11:25:08.594Z,29.92
2022-08-21T11:26:08.601Z,29.70
2022-08-21T11:27:08.571Z,29.40
2022-08-21T11:28:13.585Z,29.11
2022-08-21T11:29:09.545Z,28.84
2022-08-21T11:30:08.539Z,28.68
2022-08-21T11:31:08.532Z,28.63
2022-08-21T11:32:08.510Z,28.78
2022-08-21T11:33:08.499Z,28.87
2022-08-21T11:34:08.501Z,28.95
2022-08-21T11:35:08.485Z,29.23
2022-08-21T11:36:08.481Z,29.23
2022-08-21T11:37:08.478Z,29.40
2022-08-21T11:38:08.446Z,29.62
2022-08-21T11:39:08.441Z,29.84
2022-08-21T11:40:08.506Z,29.89
2022-08-21T11:41:08.425Z,30.05
2022-08-21T11:42:09.230Z,30.23
2022-08-21T11:43:08.406Z,30.08
2022-08-21T11:44:08.389Z,30.07
2022-08-21T11:45:08.376Z,30.09
2022-08-21T11:46:08.386Z,29.94
2022-08-21T11:47:08.350Z,29.71
2022-08-21T11:48:08.340Z,29.60
2022-08-21T11:49:08.330Z,29.63
2022-08-21T11:50:32.490Z,29.75
2022-08-21T11:51:09.324Z,29.77
2022-08-21T11:52:08.303Z,29.82
2022-08-21T11:53:08.284Z,29.89
2022-08-21T11:54:08.273Z,29.70
2022-08-21T11:55:08.266Z,29.84
2022-08-21T11:56:08.279Z,29.68
2022-08-21T11:57:08.255Z,29.70
2022-08-21T11:58:08.238Z,29.72
2022-08-21T11:59:08.218Z,29.79
2022-08-21T12:00:08.216Z,29.66
2022-08-21T12:01:08.222Z,29.50
2022-08-21T12:02:08.248Z,29.45
2022-08-21T12:03:08.183Z,29.50
2022-08-21T12:04:08.174Z,29.38
2022-08-21T12:05:09.205Z,29.44
2022-08-21T12:06:08.166Z,29.55
2022-08-21T12:07:08.134Z,29.55
2022-08-21T12:08:08.129Z,29.77
2022-08-21T12:09:08.118Z,29.94
2022-08-21T12:10:08.115Z,30.07
2022-08-21T12:11:08.137Z,30.16
2022-08-21T12:12:08.095Z,30.38
2022-08-21T12:13:08.069Z,30.62
2022-08-21T12:14:08.060Z,30.69
2022-08-21T12:15:08.046Z,30.62
2022-08-21T12:16:08.059Z,30.69
2022-08-21T12:17:10.340Z,30.69
2022-08-21T12:18:08.022Z,30.65
2022-08-21T12:19:08.003Z,30.80
2022-08-21T12:20:08.006Z,30.74
2022-08-21T12:21:08.002Z,30.89
2022-08-21T12:22:07.971Z,30.98
2022-08-21T12:23:12.810Z,31.13
2022-08-21T12:24:08.955Z,31.13
2022-08-21T12:25:07.951Z,31.17
2022-08-21T12:26:07.941Z,31.15
2022-08-21T12:27:07.916Z,31.01
2022-08-21T12:28:07.926Z,31.05
2022-08-21T12:29:07.982Z,31.18
2022-08-21T12:30:07.886Z,31.23
2022-08-21T12:31:07.907Z,31.27
2022-08-21T12:32:07.865Z,31.57
2022-08-21T12:33:07.857Z,31.76
2022-08-21T12:34:07.843Z,31.76
2022-08-21T12:35:07.833Z,31.84
2022-08-21T12:36:08.841Z,31.82
2022-08-21T12:37:07.819Z,31.77
2022-08-21T12:38:07.806Z,31.77
2022-08-21T12:39:07.793Z,31.95
2022-08-21T12:40:07.832Z,31.73
2022-08-21T12:41:07.774Z,31.72
2022-08-21T12:42:07.776Z,31.73
2022-08-21T12:43:08.036Z,31.79
2022-08-21T12:44:07.734Z,31.73
2022-08-21T12:45:07.741Z,31.72
2022-08-21T12:46:07.763Z,31.53
2022-08-21T12:47:07.709Z,31.60
2022-08-21T12:48:07.692Z,31.45
2022-08-21T12:49:07.686Z,31.23
2022-08-21T12:50:07.682Z,31.26
2022-08-21T12:51:07.680Z,31.21
2022-08-21T12:52:07.652Z,30.83